createdAt,value
2022-12-11T00:03:10.273Z,96888.16
2022-12-11T00:07:03.611Z,96881.61
2022-12-11T00:10:25.899Z,96879.38
2022-12-11T00:14:22.322Z,96878.83
2022-12-11T00:17:44.471Z,96876.13
2022-12-11T00:21:22.241Z,96876.67
2022-12-11T00:25:18.741Z,96867.30
2022-12-11T00:28:41.856Z,96861.85
2022-12-11T00:32:18.520Z,96856.45
2022-12-11T00:36:24.969Z,96855.80
2022-12-11T00:40:06.542Z,96848.92
2022-12-11T00:43:28.817Z,96842.56
2022-12-11T00:47:25.418Z,96842.11
2022-12-11T00:51:06.628Z,96843.13
2022-12-11T00:54:48.653Z,96840.20
2022-12-11T00:58:12.018Z,96836.24
2022-12-11T01:02:07.250Z,96835.11
2022-12-11T01:05:29.488Z,96833.08
2022-12-11T01:09:44.574Z,96835.05
2022-12-11T01:13:07.039Z,96840.38
2022-12-11T01:16:44.415Z,96839.91
2022-12-11T01:20:42.024Z,96842.73
2022-12-11T01:24:04.373Z,96844.75
2022-12-11T01:28:00.748Z,96838.44
2022-12-11T01:31:22.847Z,96833.52
2022-12-11T01:35:06.598Z,96833.44
2022-12-11T01:38:37.994Z,96825.04
2022-12-11T01:42:18.445Z,96822.56
2022-12-11T01:46:12.234Z,96815.05
2022-12-11T01:49:34.797Z,96816.06
2022-12-11T01:53:17.356Z,96809.71
2022-12-11T01:56:53.092Z,96807.80
2022-12-11T02:00:47.157Z,96805.34
2022-12-11T02:04:11.374Z,96804.79
2022-12-11T02:07:55.483Z,96810.06
2022-12-11T02:11:52.340Z,96814.46
2022-12-11T02:15:29.756Z,96810.92
2022-12-11T02:19:03.313Z,96811.68
2022-12-11T02:22:48.405Z,96815.27
2022-12-11T02:26:32.581Z,96817.65
2022-12-11T02:30:10.415Z,96825.56
2022-12-11T02:34:17.914Z,96819.99
2022-12-11T02:37:43.689Z,96816.92
2022-12-11T02:41:20.310Z,96820.91
2022-12-11T02:45:17.523Z,96820.58
2022-12-11T02:48:59.648Z,96816.53
2022-12-11T02:52:23.724Z,96813.73
2022-12-11T02:56:13.016Z,96816.23
2022-12-11T02:59:56.132Z,96810.45
2022-12-11T03:03:37.339Z,96805.85
2022-12-11T03:07:12.205Z,96795.55
2022-12-11T03:10:36.793Z,96795.23
2022-12-11T03:14:14.464Z,96790.77
2022-12-11T03:18:45.589Z,96791.40
2022-12-11T03:22:52.300Z,96790.69
2022-12-11T03:26:17.616Z,96786.52
2022-12-11T03:30:04.619Z,96784.05
2022-12-11T03:33:36.718Z,96789.46
2022-12-11T03:37:32.338Z,96791.65
2022-12-11T03:40:58.537Z,96795.77
2022-12-11T03:44:53.987Z,96796.52
2022-12-11T03:48:17.757Z,96801.86
2022-12-11T03:51:56.986Z,96802.42
2022-12-11T03:55:51.081Z,96797.42
2022-12-11T03:59:32.042Z,96793.85
2022-12-11T04:03:14.288Z,96785.76
2022-12-11T04:06:36.872Z,96773.09
2022-12-11T04:10:14.737Z,96767.88
2022-12-11T04:14:12.245Z,96761.95
2022-12-11T04:18:12.859Z,96757.40
2022-12-11T04:21:53.460Z,96762.16
2022-12-11T04:25:34.971Z,96762.07
2022-12-11T04:29:16.026Z,96755.39
2022-12-11T04:32:38.149Z,96753.39
2022-12-11T04:36:16.496Z,96761.88
2022-12-11T04:39:53.553Z,96758.84
2022-12-11T04:43:31.230Z,96758.80
2022-12-11T04:47:27.555Z,96754.86
2022-12-11T04:51:08.976Z,96758.23
2022-12-11T04:54:50.906Z,96751.98
2022-12-11T04:58:13.705Z,96753.50
2022-12-11T05:01:50.731Z,96747.95
2022-12-11T05:05:28.157Z,96741.08
2022-12-11T05:09:06.241Z,96739.46
2022-12-11T05:12:43.560Z,96738.02
2022-12-11T05:16:21.349Z,96742.75
2022-12-11T05:20:17.870Z,96739.71
2022-12-11T05:23:41.662Z,96732.64
2022-12-11T05:27:36.910Z,96737.73
2022-12-11T05:31:05.369Z,96736.83
2022-12-11T05:34:55.332Z,96733.77
2022-12-11T05:38:17.547Z,96730.57
2022-12-11T05:41:55.657Z,96732.16
2022-12-11T05:45:33.353Z,96726.07
2022-12-11T05:49:31.158Z,96726.56
2022-12-11T05:52:53.637Z,96721.36
2022-12-11T05:56:50.777Z,96719.48
2022-12-11T06:00:13.226Z,96718.50
2022-12-11T06:04:10.963Z,96719.52
2022-12-11T06:07:33.185Z,96719.42
2022-12-11T06:11:14.083Z,96728.55
2022-12-11T06:14:48.509Z,96728.64
2022-12-11T06:18:45.415Z,96726.39
2022-12-11T06:22:07.266Z,96722.09
2022-12-11T06:25:44.740Z,96725.70
2022-12-11T06:29:22.625Z,96721.71
2022-12-11T06:33:00.198Z,96723.43
2022-12-11T06:36:37.884Z,96728.02
2022-12-11T06:40:34.278Z,96730.04
2022-12-11T06:43:56.046Z,96732.80
2022-12-11T06:47:33.896Z,96731.88
2022-12-11T06:51:14.279Z,96734.50
2022-12-11T06:54:49.911Z,96736.80
2022-12-11T06:58:26.743Z,96736.28
2022-12-11T07:02:05.084Z,96738.73
2022-12-11T07:05:42.302Z,96740.92
2022-12-11T07:09:19.906Z,96737.56
2022-12-11T07:13:16.592Z,96740.36
2022-12-11T07:16:58.470Z,96742.18
2022-12-11T07:20:39.462Z,96740.40
2022-12-11T07:24:01.519Z,96743.13
2022-12-11T07:27:39.252Z,96738.56
2022-12-11T07:31:23.218Z,96735.52
2022-12-11T07:34:54.726Z,96732.78
2022-12-11T07:38:51.558Z,96734.27
2022-12-11T07:42:32.416Z,96740.31
2022-12-11T07:46:16.654Z,96749.78
2022-12-11T07:49:38.392Z,96748.05
2022-12-11T07:53:16.025Z,96756.17
2022-12-11T07:57:14.358Z,96754.13
2022-12-11T08:00:36.693Z,96758.61
2022-12-11T08:04:32.989Z,96759.63
2022-12-11T08:07:55.754Z,96759.48
2022-12-11T08:11:33.216Z,96763.70
2022-12-11T08:15:11.540Z,96764.02
2022-12-11T08:19:08.066Z,96754.48
2022-12-11T08:22:56.017Z,96758.33
2022-12-11T08:26:26.850Z,96755.38
2022-12-11T08:30:17.596Z,96765.69
2022-12-11T08:33:57.727Z,96760.14
2022-12-11T08:37:20.203Z,96760.34
2022-12-11T08:41:22.526Z,96766.27
2022-12-11T08:44:44.757Z,96761.58
2022-12-11T08:48:42.809Z,96764.04
2022-12-11T08:52:05.620Z,96771.11
2022-12-11T08:56:01.947Z,96764.70
2022-12-11T08:59:25.584Z,96762.37
2022-12-11T09:03:01.859Z,96767.52
2022-12-11T09:06:39.302Z,96763.33
2022-12-11T09:10:17.121Z,96761.27
2022-12-11T09:13:55.034Z,96755.66
2022-12-11T09:17:34.314Z,96748.86
2022-12-11T09:21:30.121Z,96750.48
2022-12-11T09:24:52.398Z,96749.15
2022-12-11T09:28:31.094Z,96744.44
2022-12-11T09:32:07.556Z,96742.02
2022-12-11T09:35:45.376Z,96746.89
2022-12-11T09:39:23.090Z,96738.19
2022-12-11T09:43:09.850Z,96740.00
2022-12-11T09:46:40.464Z,96744.52
2022-12-11T09:50:35.127Z,96741.92
2022-12-11T09:54:01.898Z,96732.59
2022-12-11T09:57:48.898Z,96724.41
2022-12-11T10:01:25.390Z,96718.33
2022-12-11T10:05:17.732Z,96712.51
2022-12-11T10:09:08.075Z,96712.84
2022-12-11T10:12:40.647Z,96706.48
2022-12-11T10:16:30.087Z,96709.55
2022-12-11T10:19:53.633Z,96715.05
2022-12-11T10:23:43.454Z,96718.30
2022-12-11T10:27:33.549Z,96720.01
2022-12-11T10:31:16.154Z,96717.88
2022-12-11T10:35:04.083Z,96719.61
2022-12-11T10:38:46.899Z,96716.54
2022-12-11T10:42:28.144Z,96717.13
2022-12-11T10:46:21.661Z,96709.30
2022-12-11T10:50:04.025Z,96703.70
2022-12-11T10:53:26.543Z,96697.03
2022-12-11T10:57:05.525Z,96690.88
2022-12-11T11:00:41.962Z,96686.77
2022-12-11T11:04:41.467Z,96685.67
2022-12-11T11:08:24.977Z,96680.40
2022-12-11T11:12:25.893Z,96674.86
2022-12-11T11:15:47.984Z,96671.27
2022-12-11T11:19:33.671Z,96669.17
2022-12-11T11:23:24.635Z,96667.17
2022-12-11T11:27:20.121Z,96664.16
2022-12-11T11:30:53.951Z,96655.83
2022-12-11T11:34:38.692Z,96656.37
2022-12-11T11:38:24.493Z,96649.98
2022-12-11T11:42:45.065Z,96639.73
2022-12-11T11:46:36.034Z,96637.31
2022-12-11T11:50:14.854Z,96638.45
2022-12-11T11:54:00.848Z,96636.49
2022-12-11T11:57:54.477Z,96636.97
2022-12-11T12:01:36.096Z,96633.39
2022-12-11T12:04:57.891Z,96634.94
2022-12-11T12:09:21.913Z,96639.59
2022-12-11T12:12:50.884Z,96640.42
2022-12-11T12:16:53.337Z,96640.56
2022-12-11T12:20:37.066Z,96644.08
2022-12-11T12:24:28.015Z,96645.46
2022-12-11T12:28:08.893Z,96647.33
2022-12-11T12:31:47.182Z,96645.55
2022-12-11T12:35:35.577Z,96635.21
2022-12-11T12:39:26.152Z,96639.60
2022-12-11T12:43:16.967Z,96638.69
2022-12-11T12:46:51.880Z,96636.94
2022-12-11T12:50:20.725Z,96637.02
2022-12-11T12:54:22.874Z,96637.06
2022-12-11T12:57:53.649Z,96634.56
2022-12-11T13:01:47.565Z,96635.27
2022-12-11T13:05:24.431Z,96635.28
2022-12-11T13:08:50.809Z,96642.99
2022-12-11T13:12:33.505Z,96644.63
2022-12-11T13:16:26.013Z,96652.38
2022-12-11T13:20:18.192Z,96662.95
2022-12-11T13:23:40.378Z,96666.40
2022-12-11T13:27:24.731Z,96671.46
2022-12-11T13:31:04.389Z,96678.77
2022-12-11T13:34:35.244Z,96679.43
2022-12-11T13:38:18.766Z,96676.98
2022-12-11T13:41:56.205Z,96678.44
2022-12-11T13:45:28.343Z,96680.83
2022-12-11T13:49:26.021Z,96682.19
2022-12-11T13:52:56.328Z,96687.90
2022-12-11T13:56:27.883Z,96689.71
2022-12-11T14:00:04.558Z,96684.35
2022-12-11T14:03:48.995Z,96682.31
2022-12-11T14:07:34.908Z,96679.41
2022-12-11T14:11:00.357Z,96681.81
2022-12-11T14:14:45.461Z,96691.89
2022-12-11T14:18:21.281Z,96699.63
2022-12-11T14:22:02.272Z,96699.39
2022-12-11T14:25:31.248Z,96695.70
2022-12-11T14:29:27.890Z,96697.93
2022-12-11T14:33:10.417Z,96701.79
2022-12-11T14:36:36.147Z,96704.79
2022-12-11T14:40:17.212Z,96701.09
2022-12-11T14:44:00.565Z,96702.15
2022-12-11T14:47:34.534Z,96699.27
2022-12-11T14:51:07.517Z,96698.36
2022-12-11T14:55:12.813Z,96696.56
2022-12-11T14:58:43.119Z,96698.85
2022-12-11T15:02:23.963Z,96694.30
2022-12-11T15:06:44.277Z,96691.17
2022-12-11T15:10:07.236Z,96690.98
2022-12-11T15:13:54.430Z,96693.73
2022-12-11T15:17:22.814Z,96694.61
2022-12-11T15:21:07.123Z,96696.02
2022-12-11T15:24:56.264Z,96697.17
2022-12-11T15:28:34.308Z,96695.95
2022-12-11T15:32:23.180Z,96698.19
2022-12-11T15:35:57.328Z,96696.37
2022-12-11T15:39:23.682Z,96698.25
2022-12-11T15:43:20.069Z,96701.70
2022-12-11T15:46:42.002Z,96705.00
2022-12-11T15:50:25.154Z,96713.66
2022-12-11T15:54:16.155Z,96711.23
2022-12-11T15:57:44.816Z,96706.46
2022-12-11T16:01:16.050Z,96707.93
2022-12-11T16:04:54.625Z,96703.34
2022-12-11T16:08:31.197Z,96704.98
2022-12-11T16:12:27.688Z,96711.92
2022-12-11T16:15:51.347Z,96708.81
2022-12-11T16:19:46.584Z,96706.53
2022-12-11T16:23:09.439Z,96713.16
2022-12-11T16:26:46.249Z,96721.13
2022-12-11T16:30:25.119Z,96721.34
2022-12-11T16:34:01.540Z,96717.45
2022-12-11T16:37:59.476Z,96721.59
2022-12-11T16:41:23.002Z,96721.66
2022-12-11T16:45:08.659Z,96727.25
2022-12-11T16:48:36.584Z,96726.30
2022-12-11T16:52:18.981Z,96727.55
2022-12-11T16:55:52.002Z,96736.81
2022-12-11T16:59:48.404Z,96740.33
2022-12-11T17:03:32.947Z,96742.91
2022-12-11T17:07:15.036Z,96738.89
2022-12-11T17:10:42.261Z,96738.16
2022-12-11T17:14:33.411Z,96737.80
2022-12-11T17:17:55.658Z,96736.20
2022-12-11T17:21:33.393Z,96737.31
2022-12-11T17:25:11.240Z,96737.15
2022-12-11T17:28:48.524Z,96740.51
2022-12-11T17:32:27.698Z,96741.91
2022-12-11T17:36:07.316Z,96737.91
2022-12-11T17:39:41.453Z,96737.56
2022-12-11T17:43:37.984Z,96739.90
2022-12-11T17:47:00.090Z,96738.88
2022-12-11T17:50:46.670Z,96737.60
2022-12-11T17:54:34.520Z,96738.15
2022-12-11T17:57:56.476Z,96738.84
2022-12-11T18:01:34.627Z,96731.56
2022-12-11T18:05:12.084Z,96736.55
2022-12-11T18:08:49.423Z,96740.38
2022-12-11T18:12:45.929Z,96741.02
2022-12-11T18:16:30.711Z,96741.32
2022-12-11T18:19:52.792Z,96744.54
2022-12-11T18:23:31.875Z,96746.65
2022-12-11T18:27:27.765Z,96748.31
2022-12-11T18:30:50.051Z,96755.41
2022-12-11T18:34:28.216Z,96751.38
2022-12-11T18:38:24.821Z,96752.54
2022-12-11T18:41:58.385Z,96747.52
2022-12-11T18:45:30.728Z,96751.53
2022-12-11T18:49:08.135Z,96747.63
2022-12-11T18:52:45.828Z,96742.83
2022-12-11T18:56:23.542Z,96745.24
2022-12-11T19:00:07.694Z,96742.45
2022-12-11T19:03:38.749Z,96751.16
2022-12-11T19:07:16.567Z,96755.64
2022-12-11T19:10:54.059Z,96754.31
2022-12-11T19:14:31.781Z,96752.83
2022-12-11T19:18:16.588Z,96748.66
2022-12-11T19:21:48.734Z,96747.08
2022-12-11T19:25:46.388Z,96747.11
2022-12-11T19:29:09.038Z,96742.83
2022-12-11T19:32:46.118Z,96740.50
2022-12-11T19:36:43.189Z,96741.30
2022-12-11T19:40:25.636Z,96742.63
2022-12-11T19:43:49.656Z,96737.11
2022-12-11T19:47:45.106Z,96739.27
2022-12-11T19:51:29.964Z,96737.10
2022-12-11T19:54:52.127Z,96740.20
2022-12-11T19:58:30.127Z,96740.28
2022-12-11T20:02:07.496Z,96736.36
2022-12-11T20:05:45.248Z,96732.30
2022-12-11T20:09:25.584Z,96726.04
2022-12-11T20:13:20.967Z,96722.79
2022-12-11T20:17:09.767Z,96724.67
2022-12-11T20:20:29.483Z,96726.33
2022-12-11T20:24:21.988Z,96724.98
2022-12-11T20:27:49.957Z,96722.51
2022-12-11T20:31:46.024Z,96722.85
2022-12-11T20:35:09.103Z,96720.09
2022-12-11T20:38:48.481Z,96715.47
2022-12-11T20:42:24.746Z,96715.76
2022-12-11T20:46:01.236Z,96718.31
2022-12-11T20:49:57.940Z,96718.55
2022-12-11T20:53:20.183Z,96716.87
2022-12-11T20:56:58.143Z,96715.57
2022-12-11T21:00:39.797Z,96715.06
2022-12-11T21:04:13.974Z,96717.12
2022-12-11T21:07:54.060Z,96718.28
2022-12-11T21:11:29.445Z,96716.58
2022-12-11T21:15:07.124Z,96719.02
2022-12-11T21:18:44.390Z,96721.46
2022-12-11T21:22:21.728Z,96722.17
2022-12-11T21:25:59.239Z,96717.85
2022-12-11T21:29:36.995Z,96718.11
2022-12-11T21:33:14.861Z,96720.77
2022-12-11T21:36:56.661Z,96726.35
2022-12-11T21:40:30.289Z,96727.09
2022-12-11T21:47:54.347Z,96731.28
2022-12-11T21:51:37.958Z,96736.21
2022-12-11T21:55:12.171Z,96736.95
2022-12-11T21:59:06.616Z,96732.38
2022-12-11T22:02:28.373Z,96733.49
2022-12-11T22:06:06.395Z,96729.52
2022-12-11T22:09:43.931Z,96730.59
2022-12-11T22:13:21.242Z,96731.73
2022-12-11T22:17:18.542Z,96727.70
2022-12-11T22:21:00.657Z,96728.23
2022-12-11T22:24:22.760Z,96726.73
2022-12-11T22:28:00.697Z,96728.77
2022-12-11T22:31:57.599Z,96721.44
2022-12-11T22:35:38.714Z,96721.27
2022-12-11T22:39:19.937Z,96721.71
2022-12-11T22:42:42.249Z,96718.42
2022-12-11T22:46:21.748Z,96718.29
2022-12-11T22:50:16.686Z,96719.05
2022-12-11T22:53:57.837Z,96714.10
2022-12-11T22:57:38.941Z,96714.89
2022-12-11T23:01:02.303Z,96710.58
2022-12-11T23:04:39.140Z,96707.45
2022-12-11T23:08:17.096Z,96701.27
2022-12-11T23:11:55.884Z,96700.01
2022-12-11T23:15:31.971Z,96703.33
2022-12-11T23:19:11.506Z,96704.42
2022-12-11T23:22:47.324Z,96703.18
2022-12-11T23:26:27.291Z,96702.26
2022-12-11T23:30:02.750Z,96702.27
2022-12-11T23:33:59.784Z,96701.38
2022-12-11T23:37:22.673Z,96698.80
2022-12-11T23:41:01.786Z,96699.16
2022-12-11T23:44:37.470Z,96697.80
2022-12-11T23:48:15.402Z,96698.36
2022-12-11T23:51:52.789Z,96702.48
2022-12-11T23:55:30.817Z,96704.77
2022-12-11T23:59:26.789Z,96708.35
